aviador You're here:

DTTJ Decoded Metar

DJERBA in TUNISIA
Report Time2018-02-18 21:00:00
UTC Time2018-02-18 21:38:43
Flight Rules vfr VFR
Wind080° at 01 kt
W.Decomp.*RWY 09: 1.0 kt HW 0.2 kt LCW
W.Rank080° ranks 1
Current wind is below 080° avg. (8.7)
Visibility9999 m
Phenomena:N/A
Clouds:Few 016 Hf
Scattered 030 Hf
Expected CloudBase > 1,600 ft AGL from Temp-Dew spread
CeilingNone
Temp14°C (ISA -1)
Dew Point10°C (77% RH)
AAT13.7°C
QNH1016 hPa
Density Alt-39 ft
Elevation13 ft
Report Wrong Elevation
Raw Report
METAR DTTJ 182100Z 08001KT 9999 FEW016 SCT030 14/10 Q1016 NOSIG=

Extra information for DTTJ:More info

Metar Taf Metar & Taf Last 4 Metars F.Rules Stats Wind Profile Meteogram Temp Stats Airport Information Weather charts Add Link Nearby VenuesMetar ALERT Operation Metar Decoded Social comments